Time;durP1;ratioP1;P1;durP2;ratioP2;P2;SDS_P1;SDS_P2;PMS_P1;PMS_P2;Temp;Humidity;BMP_temperature;BMP_pressure;BME280_temperature;BME280_humidity;BME280_pressure;Samples;Min_cycle;Max_cycle;Signal;HPM_P1;HPM_P2
2021/05/28 00:02:06;;;;;;;6.30;2.60;;;;;;;8.77;77.71;101017.91;5068919;28;20224;-72
2021/05/28 00:04:35;;;;;;;5.27;4.77;;;;;;;8.82;77.14;101025.69;5069070;28;20516;-72
2021/05/28 00:07:03;;;;;;;1.63;1.53;;;;;;;8.83;77.64;101027.41;5075934;28;20255;-72
2021/05/28 00:09:31;;;;;;;5.80;3.40;;;;;;;8.56;76.83;100971.78;5079616;28;20207;-73
2021/05/28 00:11:59;;;;;;;1.60;1.50;;;;;;;8.94;77.78;101025.00;5076849;28;20679;-72
2021/05/28 00:14:27;;;;;;;1.83;1.10;;;;;;;8.93;77.82;101034.88;5071809;28;20876;-73
2021/05/28 00:16:55;;;;;;;2.00;1.43;;;;;;;8.95;77.82;101032.97;5070890;28;20205;-72
2021/05/28 00:19:22;;;;;;;0.90;0.90;;;;;;;8.94;77.79;101031.22;5069432;28;20197;-73
2021/05/28 00:21:51;;;;;;;0.93;0.93;;;;;;;9.05;77.66;101043.16;5085255;28;20842;-72
2021/05/28 00:24:19;;;;;;;1.53;1.43;;;;;;;9.03;77.16;101036.06;5076048;28;20209;-72
2021/05/28 00:26:47;;;;;;;1.10;1.00;;;;;;;9.05;76.84;101040.47;5071625;28;20241;-72
2021/05/28 00:29:15;;;;;;;0.77;0.77;;;;;;;8.94;77.40;101020.53;5072338;28;20712;-67
2021/05/28 00:31:42;;;;;;;1.90;1.80;;;;;;;8.96;77.68;101040.03;5074301;28;20219;-72
2021/05/28 00:34:10;;;;;;;1.00;1.00;;;;;;;8.97;77.39;101036.41;5069672;28;20211;-73
2021/05/28 00:36:38;;;;;;;1.47;1.03;;;;;;;9.01;77.38;101045.13;5073700;28;20283;-72
2021/05/28 00:39:07;;;;;;;0.80;0.80;;;;;;;8.85;77.27;101023.69;5071970;28;20542;-73
2021/05/28 00:41:35;;;;;;;1.37;1.00;;;;;;;8.94;77.38;101046.44;5104570;28;20199;-72
2021/05/28 00:44:03;;;;;;;1.63;1.53;;;;;;;8.95;77.39;101051.72;5071789;28;20204;-72
2021/05/28 00:46:31;;;;;;;0.77;0.70;;;;;;;8.92;77.81;101042.97;5072130;28;20727;-73
2021/05/28 00:48:59;;;;;;;0.60;0.60;;;;;;;8.70;77.58;101008.50;5070353;28;20193;-73
2021/05/28 00:51:27;;;;;;;0.70;0.70;;;;;;;9.05;77.24;101053.84;5072030;28;20190;-73
2021/05/28 00:53:54;;;;;;;0.67;0.67;;;;;;;8.99;76.91;101053.25;5071338;28;20202;-72
2021/05/28 00:56:25;;;;;;;1.20;0.70;;;;;;;8.70;77.68;101030.78;5071652;28;20189;-72
2021/05/28 00:58:59;;;;;;;1.10;0.73;;;;;;;8.94;77.55;101057.16;5070934;28;20207;-72
2021/05/28 01:01:27;;;;;;;0.90;0.80;;;;;;;8.91;77.58;101052.84;5063945;28;20246;-72
2021/05/28 01:03:55;;;;;;;0.70;0.70;;;;;;;8.91;77.75;101063.53;5071955;28;20547;-72
2021/05/28 01:06:24;;;;;;;1.00;0.90;;;;;;;8.88;77.55;101063.72;5061042;28;20236;-72
2021/05/28 01:08:53;;;;;;;1.57;0.80;;;;;;;8.67;77.69;101038.13;5066647;28;20290;-72
2021/05/28 01:11:20;;;;;;;1.47;0.70;;;;;;;8.80;77.66;101063.25;5070283;28;20193;-72
2021/05/28 01:13:50;;;;;;;1.70;0.80;;;;;;;8.88;77.66;101086.97;5070389;28;20315;-72
2021/05/28 01:16:18;;;;;;;2.07;0.83;;;;;;;8.93;77.20;101088.44;5069570;28;20194;-72
2021/05/28 01:18:46;;;;;;;0.90;0.90;;;;;;;8.88;77.54;101087.81;5071421;28;20205;-72
2021/05/28 01:21:14;;;;;;;0.77;0.77;;;;;;;8.89;77.80;101081.53;5070132;28;20212;-72
2021/05/28 01:23:43;;;;;;;0.70;0.70;;;;;;;8.92;77.69;101075.13;5071442;28;20582;-72
2021/05/28 01:26:11;;;;;;;1.00;1.00;;;;;;;8.80;77.81;101067.75;5070607;28;20569;-72
2021/05/28 01:28:38;;;;;;;0.80;0.80;;;;;;;8.98;77.86;101075.63;5069713;28;20195;-72
2021/05/28 01:31:06;;;;;;;2.47;0.83;;;;;;;9.00;77.16;101076.41;5070431;28;20220;-72
2021/05/28 01:33:34;;;;;;;1.03;1.03;;;;;;;9.06;76.99;101077.88;5069474;28;20199;-72
2021/05/28 01:36:01;;;;;;;1.20;1.10;;;;;;;8.76;78.32;101059.03;5072249;28;20215;-73
2021/05/28 01:38:29;;;;;;;0.90;0.90;;;;;;;8.96;77.75;101088.25;5066630;28;20212;-72
2021/05/28 01:40:58;;;;;;;0.77;0.77;;;;;;;8.96;77.14;101082.91;5070250;28;20275;-72
2021/05/28 01:43:25;;;;;;;0.93;0.93;;;;;;;8.95;77.97;101088.34;5068540;28;20227;-72
2021/05/28 01:45:53;;;;;;;2.07;1.10;;;;;;;8.96;77.57;101088.25;5070640;28;20203;-72
2021/05/28 01:48:21;;;;;;;905.80;591.67;;;;;;;9.00;76.99;101089.81;5069466;28;20616;-72
2021/05/28 01:50:49;;;;;;;48.70;26.50;;;;;;;9.04;77.51;101085.16;5069579;28;20227;-67
2021/05/28 01:53:18;;;;;;;9.23;4.67;;;;;;;9.05;76.65;101086.88;5068549;28;20208;-73
2021/05/28 01:55:46;;;;;;;7.20;3.20;;;;;;;9.07;76.87;101089.47;5068482;28;20421;-72
2021/05/28 01:58:16;;;;;;;6.40;2.70;;;;;;;9.08;77.08;101085.84;5068467;28;20605;-67
2021/05/28 02:00:44;;;;;;;3.80;2.63;;;;;;;9.11;76.90;101089.19;5067315;28;20551;-65
2021/05/28 02:03:12;;;;;;;6.10;3.07;;;;;;;9.16;76.98;101089.81;5070106;28;20200;-72
2021/05/28 02:05:40;;;;;;;3.37;2.00;;;;;;;9.20;76.99;101087.84;5068903;28;20582;-72
2021/05/28 02:08:08;;;;;;;2.33;1.90;;;;;;;9.21;76.78;101085.06;5069816;28;20221;-73
2021/05/28 02:10:35;;;;;;;2.97;1.90;;;;;;;9.21;76.88;101097.59;5069435;28;20599;-72
2021/05/28 02:13:03;;;;;;;1.83;1.73;;;;;;;9.26;76.54;101100.88;5071031;28;20678;-72
2021/05/28 02:15:32;;;;;;;3.97;3.60;;;;;;;9.30;77.18;101094.41;5069824;28;20757;-72
2021/05/28 02:18:00;;;;;;;24.17;18.23;;;;;;;9.13;76.50;101065.00;5068914;28;20197;-68
2021/05/28 02:20:28;;;;;;;5.07;3.33;;;;;;;9.38;76.66;101097.50;5068156;28;20204;-67
2021/05/28 02:22:56;;;;;;;2.10;1.37;;;;;;;9.24;76.48;101070.63;5068274;28;20233;-72
2021/05/28 02:25:23;;;;;;;2.30;2.10;;;;;;;9.30;76.33;101075.63;5069852;28;20565;-68
2021/05/28 02:27:51;;;;;;;1.30;1.20;;;;;;;9.38;76.55;101094.81;5066045;28;20774;-67
2021/05/28 02:30:19;;;;;;;1.67;1.23;;;;;;;9.38;76.17;101089.44;5069717;28;20213;-67
2021/05/28 02:32:48;;;;;;;4.60;2.43;;;;;;;9.31;76.13;101082.72;5067296;28;20695;-67
2021/05/28 02:35:16;;;;;;;1.20;1.10;;;;;;;9.41;75.78;101097.31;5068075;28;20628;-72
2021/05/28 02:37:43;;;;;;;3.43;1.10;;;;;;;9.44;75.25;101109.69;5068936;28;20643;-72
2021/05/28 02:40:12;;;;;;;1.13;1.03;;;;;;;9.43;75.15;101094.53;5067298;28;20208;-68
2021/05/28 02:42:40;;;;;;;1.17;1.07;;;;;;;9.39;75.70;101101.91;5072058;28;20201;-67
2021/05/28 02:45:08;;;;;;;0.90;0.90;;;;;;;9.41;76.09;101102.69;5065148;28;20209;-68
2021/05/28 02:47:36;;;;;;;0.90;0.90;;;;;;;9.40;76.26;101108.13;5072387;28;20217;-67
2021/05/28 02:50:05;;;;;;;1.17;0.80;;;;;;;9.35;76.47;101105.72;5072235;28;20530;-67
2021/05/28 02:52:33;;;;;;;0.90;0.90;;;;;;;9.36;76.03;101107.44;5067891;28;20205;-72
2021/05/28 02:55:01;;;;;;;1.17;0.70;;;;;;;9.32;76.21;101106.75;5069904;28;20235;-72
2021/05/28 02:57:28;;;;;;;1.03;0.93;;;;;;;9.32;76.46;101113.94;5069646;28;20193;-72
2021/05/28 02:59:56;;;;;;;0.83;0.83;;;;;;;9.31;76.96;101115.75;5069346;28;20204;-72
2021/05/28 03:02:24;;;;;;;0.87;0.80;;;;;;;9.24;78.23;101126.91;5072401;28;20200;-72
2021/05/28 03:04:51;;;;;;;0.90;0.90;;;;;;;9.22;77.75;101118.09;5076949;28;20253;-71
2021/05/28 03:07:20;;;;;;;0.80;0.80;;;;;;;9.25;77.60;101123.28;5067300;28;20224;-73
2021/05/28 03:09:47;;;;;;;0.70;0.70;;;;;;;9.31;77.18;101120.25;5071147;28;20834;-73
2021/05/28 03:12:15;;;;;;;1.07;0.97;;;;;;;9.34;77.24;101122.75;5067993;28;20205;-73
2021/05/28 03:14:43;;;;;;;1.67;1.07;;;;;;;9.05;76.57;101067.25;5069138;28;20330;-73
2021/05/28 03:17:10;;;;;;;1.03;1.00;;;;;;;9.35;76.14;101127.16;5065365;28;20190;-73
2021/05/28 03:19:43;;;;;;;1.00;1.00;;;;;;;9.31;76.72;101117.56;5064989;28;20285;-73
2021/05/28 03:24:58;;;;;;;1.10;1.00;;;;;;;9.35;76.99;101119.13;5068568;28;20668;-67
2021/05/28 03:27:26;;;;;;;0.90;0.90;;;;;;;9.37;76.69;101127.94;5068513;28;20309;-67
2021/05/28 03:29:54;;;;;;;4.73;1.03;;;;;;;9.31;77.14;101133.66;5080965;28;20208;-67
2021/05/28 03:32:24;;;;;;;1.83;1.00;;;;;;;9.27;76.90;101129.41;5069434;28;20288;-68
2021/05/28 03:34:52;;;;;;;3.60;0.97;;;;;;;9.28;77.50;101125.78;5072881;28;20527;-67
2021/05/28 03:37:20;;;;;;;2.73;2.53;;;;;;;9.26;77.10;101116.97;5077203;28;20281;-66
2021/05/28 03:39:48;;;;;;;29.80;15.60;;;;;;;9.29;77.15;101111.44;5080708;28;20256;-67
2021/05/28 03:42:18;;;;;;;7.00;3.57;;;;;;;9.27;77.31;101124.06;5082024;28;20301;-66
2021/05/28 03:44:46;;;;;;;2.13;1.93;;;;;;;9.27;76.64;101119.56;5072002;28;20216;-67
2021/05/28 03:47:15;;;;;;;1.83;1.73;;;;;;;9.18;78.72;101130.78;5072520;28;20252;-67
2021/05/28 03:49:43;;;;;;;3.07;2.37;;;;;;;9.18;78.90;101113.81;5081765;28;20558;-67
2021/05/28 03:52:11;;;;;;;1.40;1.30;;;;;;;9.28;79.29;101131.13;5067900;28;20258;-67
2021/05/28 03:54:39;;;;;;;4.50;2.37;;;;;;;9.37;79.84;101143.16;5072160;28;20208;-67
2021/05/28 03:57:06;;;;;;;2.97;1.70;;;;;;;9.42;80.54;101136.56;5071498;28;20205;-67
2021/05/28 03:59:35;;;;;;;2.30;1.50;;;;;;;9.46;79.82;101143.47;5070372;28;20231;-67
2021/05/28 04:02:03;;;;;;;1.50;1.40;;;;;;;9.31;79.27;101114.88;5071424;28;20202;-68
2021/05/28 04:04:33;;;;;;;1.30;1.10;;;;;;;9.52;78.97;101145.84;5071040;28;20198;-67
2021/05/28 04:07:02;;;;;;;1.40;1.30;;;;;;;9.53;78.42;101152.94;5077827;28;20667;-67
2021/05/28 04:09:34;;;;;;;4.77;2.87;;;;;;;9.45;79.03;101148.94;5072586;28;20611;-72
2021/05/28 04:12:01;;;;;;;2.80;2.60;;;;;;;9.50;78.38;101158.47;5081458;28;20202;-73
2021/05/28 04:14:29;;;;;;;3.13;2.47;;;;;;;9.57;78.75;101167.03;5068639;28;20225;-67
2021/05/28 04:16:58;;;;;;;4.53;2.23;;;;;;;9.52;79.18;101161.94;5071389;28;20225;-68
2021/05/28 04:19:25;;;;;;;3.20;1.60;;;;;;;9.59;78.64;101171.34;5074305;28;20671;-67
2021/05/28 04:21:53;;;;;;;2.70;1.53;;;;;;;9.50;78.88;101161.16;5078558;28;20220;-67
2021/05/28 04:24:21;;;;;;;1.73;1.40;;;;;;;9.51;79.00;101162.88;5081947;28;20648;-68
2021/05/28 04:26:48;;;;;;;3.70;1.40;;;;;;;9.55;78.89;101172.47;5078435;28;20207;-67
2021/05/28 04:29:18;;;;;;;1.60;1.50;;;;;;;9.46;79.53;101172.97;5076022;28;20216;-68
2021/05/28 04:31:46;;;;;;;1.50;1.40;;;;;;;9.44;79.38;101174.00;5071763;28;20207;-68
2021/05/28 04:34:15;;;;;;;1.40;1.30;;;;;;;9.46;79.26;101175.66;5070896;28;20208;-68
2021/05/28 04:36:42;;;;;;;1.43;1.33;;;;;;;9.43;79.64;101173.16;5081509;28;20224;-67
2021/05/28 04:39:10;;;;;;;2.00;1.40;;;;;;;9.14;79.72;101139.06;5075688;28;20200;-72
2021/05/28 04:41:38;;;;;;;2.53;1.63;;;;;;;9.32;80.03;101172.91;5074951;28;20285;-72
2021/05/28 04:44:06;;;;;;;1.60;1.50;;;;;;;9.41;79.24;101175.06;5075247;28;20723;-68
2021/05/28 04:46:34;;;;;;;1.47;1.37;;;;;;;9.49;79.28;101183.56;5081730;28;20894;-67
2021/05/28 04:49:02;;;;;;;3.10;1.77;;;;;;;9.20;80.43;101178.94;5074772;28;20275;-68
2021/05/28 04:51:31;;;;;;;5.80;1.70;;;;;;;9.34;80.46;101182.56;5109638;27;20203;-68
2021/05/28 04:53:59;;;;;;;3.20;1.80;;;;;;;9.43;79.87;101188.38;5086532;28;20224;-67
2021/05/28 04:56:27;;;;;;;3.43;1.80;;;;;;;9.38;80.31;101191.31;5070064;28;20200;-68
2021/05/28 04:58:54;;;;;;;3.40;1.70;;;;;;;9.34;80.14;101195.13;5079940;28;20921;-67
2021/05/28 05:01:22;;;;;;;4.63;1.90;;;;;;;9.41;79.75;101192.94;5074626;28;20217;-68
2021/05/28 05:03:52;;;;;;;2.37;1.90;;;;;;;9.41;79.53;101191.13;5072542;28;20207;-68
2021/05/28 05:06:20;;;;;;;3.27;1.80;;;;;;;9.37;79.89;101189.59;5076768;28;20204;-68
2021/05/28 05:08:49;;;;;;;1.70;1.60;;;;;;;9.41;80.43;101201.00;5072960;28;20253;-68
2021/05/28 05:11:17;;;;;;;1.87;1.67;;;;;;;9.34;80.25;101198.66;5070521;28;20295;-69
2021/05/28 05:13:45;;;;;;;2.50;1.87;;;;;;;9.44;80.26;101199.00;5068609;28;20359;-68
2021/05/28 05:16:13;;;;;;;1.47;1.37;;;;;;;9.52;79.77;101194.09;5068650;28;20676;-68
2021/05/28 05:18:40;;;;;;;1.60;1.50;;;;;;;9.53;79.23;101197.66;5072710;28;20189;-67
2021/05/28 05:21:08;;;;;;;2.90;1.63;;;;;;;9.49;80.04;101198.75;5079427;28;20201;-67
2021/05/28 05:23:36;;;;;;;1.67;1.57;;;;;;;9.51;79.74;101196.88;5072183;28;20228;-67
2021/05/28 05:26:04;;;;;;;349.30;159.53;;;;;;;9.13;80.33;101156.97;5069000;28;20209;-68
2021/05/28 05:28:32;;;;;;;7.13;3.80;;;;;;;9.49;79.90;101204.09;5069284;28;20218;-67
2021/05/28 05:31:00;;;;;;;5.13;2.93;;;;;;;9.43;80.18;101181.19;5064512;28;20208;-67
2021/05/28 05:33:28;;;;;;;3.53;2.07;;;;;;;9.61;80.09;101209.66;5062356;28;20197;-67
2021/05/28 05:35:56;;;;;;;2.23;1.87;;;;;;;9.64;79.63;101209.47;5065914;28;20565;-68
2021/05/28 05:38:24;;;;;;;2.43;2.10;;;;;;;9.73;80.01;101207.22;5072507;28;20612;-68
2021/05/28 05:40:52;;;;;;;1.80;1.70;;;;;;;9.67;80.10;101202.22;5070529;28;20197;-69
2021/05/28 05:43:20;;;;;;;16.37;11.53;;;;;;;9.82;78.52;101206.72;5072859;28;20204;-67
2021/05/28 05:45:48;;;;;;;4.30;2.10;;;;;;;9.93;78.10;101209.66;5067067;28;20304;-68
2021/05/28 05:48:16;;;;;;;3.03;1.73;;;;;;;9.83;78.02;101181.63;5065987;28;20704;-69
2021/05/28 05:50:44;;;;;;;3.50;2.63;;;;;;;10.05;78.40;101216.97;5070697;28;20259;-69
2021/05/28 05:53:11;;;;;;;1.83;1.50;;;;;;;10.04;78.65;101217.94;5072867;28;20197;-70
2021/05/28 05:55:39;;;;;;;2.43;1.70;;;;;;;10.15;78.34;101215.50;5073443;28;20365;-69
2021/05/28 05:58:07;;;;;;;2.27;1.80;;;;;;;10.20;78.02;101225.97;5071191;28;20283;-70
2021/05/28 06:00:35;;;;;;;6.33;2.13;;;;;;;10.23;77.71;101202.53;5071760;28;20691;-68
2021/05/28 06:03:04;;;;;;;3.33;1.60;;;;;;;10.33;77.18;101207.34;5073592;28;20229;-68
2021/05/28 06:05:32;;;;;;;4.37;2.07;;;;;;;10.41;76.98;101210.47;5071473;28;20711;-68
2021/05/28 06:08:02;;;;;;;2.17;1.70;;;;;;;10.34;77.30;101217.97;5078632;28;20306;-68
2021/05/28 06:10:29;;;;;;;2.30;1.60;;;;;;;10.45;77.61;101215.56;5067163;28;20202;-69
2021/05/28 06:13:02;;;;;;;6.17;2.17;;;;;;;10.45;77.30;101212.88;5066943;28;20543;-68
2021/05/28 06:15:30;;;;;;;1.63;1.40;;;;;;;10.49;76.54;101222.47;5082491;28;20263;-68
2021/05/28 06:17:59;;;;;;;2.03;1.40;;;;;;;10.48;76.68;101206.44;5074164;28;20227;-68
2021/05/28 06:20:27;;;;;;;1.83;1.47;;;;;;;10.60;76.39;101218.25;5073729;28;20535;-73
2021/05/28 06:22:56;;;;;;;1.50;1.40;;;;;;;10.67;76.23;101217.78;5065271;28;20201;-73
2021/05/28 06:25:24;;;;;;;1.50;1.40;;;;;;;10.68;76.13;101224.88;5067510;28;20193;-73
2021/05/28 06:27:52;;;;;;;2.20;1.20;;;;;;;10.67;76.72;101225.84;5071164;28;20209;-68
2021/05/28 06:30:20;;;;;;;1.60;1.20;;;;;;;10.81;76.69;101220.53;5076490;28;20197;-73
2021/05/28 06:32:48;;;;;;;3.00;1.70;;;;;;;11.00;76.24;101220.22;5071913;28;20298;-73
2021/05/28 06:35:16;;;;;;;1.83;1.67;;;;;;;11.05;76.19;101220.84;5070680;28;20190;-73
2021/05/28 06:37:44;;;;;;;1.50;1.40;;;;;;;11.20;76.32;101221.69;5070814;28;20701;-73
2021/05/28 06:40:13;;;;;;;2.40;1.60;;;;;;;11.26;76.70;101221.28;5069911;28;20214;-73
2021/05/28 06:42:41;;;;;;;1.53;1.40;;;;;;;11.52;75.55;101217.81;5067927;28;20201;-73
2021/05/28 06:45:10;;;;;;;1.70;1.57;;;;;;;11.66;75.87;101203.50;5072907;28;20288;-73
2021/05/28 06:47:37;;;;;;;1.20;1.10;;;;;;;12.09;74.53;101233.88;5071140;28;20214;-73
2021/05/28 06:50:05;;;;;;;1.40;1.30;;;;;;;12.06;73.81;101228.69;5068524;28;20308;-73
2021/05/28 06:52:34;;;;;;;1.90;1.10;;;;;;;12.16;73.73;101220.00;5071399;28;20290;-73
2021/05/28 06:55:04;;;;;;;1.40;1.30;;;;;;;12.25;72.12;101228.34;5071072;28;20222;-73
2021/05/28 06:57:32;;;;;;;1.30;1.20;;;;;;;12.23;71.74;101214.06;5071203;28;20203;-73
2021/05/28 07:00:00;;;;;;;1.30;1.20;;;;;;;12.46;71.53;101230.53;5072458;28;20191;-73
2021/05/28 07:02:28;;;;;;;1.07;1.07;;;;;;;12.26;71.66;101230.06;5066502;28;20203;-73
2021/05/28 07:04:55;;;;;;;1.47;1.37;;;;;;;12.25;71.71;101214.88;5068043;28;20207;-74
2021/05/28 07:07:23;;;;;;;1.43;1.20;;;;;;;12.39;71.63;101222.00;5068207;28;20204;-73
2021/05/28 07:09:51;;;;;;;1.27;1.17;;;;;;;12.36;71.12;101223.09;5066345;28;20221;-73
2021/05/28 07:12:19;;;;;;;1.00;1.00;;;;;;;12.45;71.23;101232.34;5073001;28;20651;-73
2021/05/28 07:14:47;;;;;;;1.13;1.10;;;;;;;12.55;70.48;101233.47;5077632;28;20252;-73
2021/05/28 07:17:15;;;;;;;4.23;1.07;;;;;;;12.69;69.64;101227.13;5073263;28;20569;-73
2021/05/28 07:19:42;;;;;;;1.20;1.10;;;;;;;12.83;69.21;101235.13;5070799;28;20211;-73
2021/05/28 07:22:10;;;;;;;1.00;1.00;;;;;;;12.90;69.31;101224.78;5076154;28;20195;-73
2021/05/28 07:24:38;;;;;;;2.20;1.60;;;;;;;12.83;69.50;101210.00;5073901;28;20200;-68
2021/05/28 07:27:08;;;;;;;1.30;1.20;;;;;;;12.64;69.12;101229.28;5071838;28;20572;-68
2021/05/28 07:29:36;;;;;;;2.13;1.30;;;;;;;12.85;69.09;101235.00;5074947;28;20220;-68
2021/05/28 07:32:04;;;;;;;1.53;1.20;;;;;;;12.78;68.91;101239.09;5079715;28;20204;-68
2021/05/28 07:34:32;;;;;;;1.20;1.00;;;;;;;12.68;69.03;101244.28;5082992;28;20235;-73
2021/05/28 07:37:00;;;;;;;1.03;1.03;;;;;;;12.79;69.37;101243.53;5079037;28;20642;-67
2021/05/28 07:39:27;;;;;;;1.00;1.00;;;;;;;12.92;68.97;101236.34;5071975;28;20211;-68
2021/05/28 07:41:55;;;;;;;1.30;1.20;;;;;;;12.82;68.96;101237.91;5073485;28;20548;-68
2021/05/28 07:44:24;;;;;;;1.17;1.17;;;;;;;12.94;68.09;101232.56;5076089;28;20201;-68
2021/05/28 07:46:52;;;;;;;2.90;1.50;;;;;;;13.26;68.48;101233.03;5073394;28;20265;-68
2021/05/28 07:49:20;;;;;;;2.97;1.20;;;;;;;13.53;66.93;101229.31;5070635;28;20710;-68
2021/05/28 07:51:48;;;;;;;1.50;1.27;;;;;;;13.81;67.08;101223.63;5103233;27;20218;-68
2021/05/28 07:54:16;;;;;;;1.33;1.23;;;;;;;14.11;64.15;101225.91;5072931;28;20206;-68
2021/05/28 07:56:44;;;;;;;1.83;1.30;;;;;;;14.23;64.43;101221.41;5072052;28;20197;-68
2021/05/28 07:59:12;;;;;;;1.20;1.10;;;;;;;14.49;64.89;101225.72;5075867;28;20228;-68
2021/05/28 08:01:41;;;;;;;1.10;1.10;;;;;;;14.50;63.33;101221.19;5066051;28;20201;-68
2021/05/28 08:04:08;;;;;;;1.00;1.00;;;;;;;14.43;64.02;101225.34;5069610;28;20237;-68
2021/05/28 08:06:36;;;;;;;1.73;1.00;;;;;;;14.40;63.67;101221.00;5069251;28;20205;-73
2021/05/28 08:09:04;;;;;;;2.00;1.20;;;;;;;14.37;63.75;101218.50;5067772;28;20658;-73
2021/05/28 08:11:32;;;;;;;1.00;1.00;;;;;;;14.08;63.46;101219.84;5069434;28;20211;-73
2021/05/28 08:14:00;;;;;;;1.00;1.00;;;;;;;13.97;64.43;101217.94;5070428;28;20240;-73
2021/05/28 08:16:28;;;;;;;1.10;1.10;;;;;;;14.08;64.26;101223.44;5070677;28;20228;-73
2021/05/28 08:18:57;;;;;;;1.17;1.10;;;;;;;14.21;64.19;101226.91;5069018;28;20208;-73
2021/05/28 08:21:24;;;;;;;1.00;1.00;;;;;;;14.54;64.52;101226.22;5064758;28;20220;-68
2021/05/28 08:23:52;;;;;;;1.07;1.07;;;;;;;14.69;64.33;101220.59;5072161;28;20204;-73
2021/05/28 08:26:19;;;;;;;1.20;1.10;;;;;;;14.95;63.60;101218.59;5065374;28;20311;-69
2021/05/28 08:28:47;;;;;;;2.50;1.00;;;;;;;15.29;63.29;101220.34;5065640;28;20623;-68
2021/05/28 08:31:15;;;;;;;1.40;1.10;;;;;;;15.56;62.82;101228.09;5064252;28;20597;-66
2021/05/28 08:33:45;;;;;;;1.00;1.00;;;;;;;16.03;62.60;101223.38;5069621;28;20212;-68
2021/05/28 08:36:13;;;;;;;0.90;0.90;;;;;;;16.46;62.12;101210.66;5065746;28;20201;-67
2021/05/28 08:38:41;;;;;;;0.93;0.93;;;;;;;17.00;60.71;101216.91;5068803;28;20563;-67
2021/05/28 08:41:09;;;;;;;0.90;0.90;;;;;;;17.44;59.37;101221.13;5066733;28;20194;-67
2021/05/28 08:43:42;;;;;;;0.83;0.83;;;;;;;17.77;58.71;101222.75;5066971;28;20198;-67
2021/05/28 08:46:12;;;;;;;0.70;0.70;;;;;;;18.16;56.75;101212.78;5098963;27;20220;-67
2021/05/28 08:48:40;;;;;;;1.03;0.93;;;;;;;18.53;55.87;101214.81;5065736;28;20656;-67
2021/05/28 08:51:07;;;;;;;1.00;1.00;;;;;;;18.76;53.92;101215.41;5066373;28;20201;-72
2021/05/28 08:53:36;;;;;;;0.77;0.77;;;;;;;18.69;52.07;101187.06;5067265;28;20220;-72
2021/05/28 08:56:08;;;;;;;0.80;0.80;;;;;;;19.07;51.60;101205.16;5067445;28;20635;-72
2021/05/28 08:58:36;;;;;;;1.03;0.80;;;;;;;19.01;52.46;101216.66;5068112;28;20276;-67
2021/05/28 09:01:06;;;;;;;0.67;0.67;;;;;;;19.13;52.02;101212.75;5065903;28;20193;-67
2021/05/28 09:03:36;;;;;;;1.43;0.73;;;;;;;19.37;52.09;101226.72;5062347;28;20201;-68
2021/05/28 09:06:15;;;;;;;1.40;0.80;;;;;;;19.38;49.65;101231.16;5061894;28;20202;-67
2021/05/28 09:08:44;;;;;;;0.70;0.70;;;;;;;19.19;50.18;101204.84;5067691;28;20200;-67
2021/05/28 09:11:14;;;;;;;1.50;0.70;;;;;;;19.09;49.21;101224.94;5064896;28;20665;-67
2021/05/28 09:13:46;;;;;;;0.87;0.80;;;;;;;19.25;46.34;101238.78;5067406;28;21104;-67
2021/05/28 09:16:15;;;;;;;3.03;0.93;;;;;;;18.18;47.49;101246.13;5057802;28;20557;-72
2021/05/28 09:18:48;;;;;;;0.70;0.70;;;;;;;18.36;49.00;101208.22;5063935;28;20205;-72
2021/05/28 09:21:23;;;;;;;0.97;0.80;;;;;;;18.53;48.88;101242.88;5061312;28;20243;-67
2021/05/28 09:23:52;;;;;;;0.60;0.60;;;;;;;18.73;49.98;101235.59;5057080;28;20620;-67
2021/05/28 09:26:20;;;;;;;3.27;0.90;;;;;;;18.72;47.98;101239.31;5059545;28;20198;-67
2021/05/28 09:28:49;;;;;;;0.77;0.77;;;;;;;18.96;46.41;101246.16;5061386;28;20189;-67
2021/05/28 09:31:19;;;;;;;0.87;0.87;;;;;;;18.47;47.33;101216.25;5062862;28;20189;-67
2021/05/28 09:33:48;;;;;;;1.10;1.00;;;;;;;18.49;47.76;101241.44;5067174;28;20261;-67
2021/05/28 09:36:18;;;;;;;1.57;0.97;;;;;;;19.06;49.25;101228.81;5081700;28;20208;-67
2021/05/28 09:38:59;;;;;;;1.07;0.80;;;;;;;19.68;49.88;101229.19;5068527;28;20819;-67
2021/05/28 09:41:45;;;;;;;2.63;0.93;;;;;;;19.54;46.73;101233.25;5069069;28;20193;-67
2021/05/28 09:44:15;;;;;;;0.97;0.97;;;;;;;19.04;48.76;101224.53;5065429;28;20211;-67
2021/05/28 09:47:11;;;;;;;1.00;1.00;;;;;;;19.67;49.77;101225.63;5065250;28;21583;-67
2021/05/28 09:49:41;;;;;;;0.90;0.90;;;;;;;20.08;50.35;101231.53;5043483;28;20279;-67
2021/05/28 09:52:14;;;;;;;1.77;1.33;;;;;;;20.16;49.21;101240.66;5066908;28;20212;-67
2021/05/28 09:54:56;;;;;;;0.90;0.90;;;;;;;20.42;50.09;101232.63;5068122;28;20216;-68
2021/05/28 09:57:32;;;;;;;0.83;0.83;;;;;;;20.68;48.83;101235.41;5062595;28;20205;-67
2021/05/28 10:00:01;;;;;;;0.60;0.60;;;;;;;20.39;47.27;101232.91;5065099;28;20406;-67
2021/05/28 10:02:40;;;;;;;1.10;1.00;;;;;;;20.07;47.50;101230.69;5063676;28;20678;-67
2021/05/28 10:05:10;;;;;;;1.00;1.00;;;;;;;20.35;47.88;101225.19;5072703;28;20330;-67
2021/05/28 10:07:39;;;;;;;0.83;0.83;;;;;;;20.84;47.21;101236.59;5071650;28;20197;-72
2021/05/28 10:10:11;;;;;;;2.23;0.70;;;;;;;20.65;45.92;101230.28;5058260;28;20221;-67
2021/05/28 10:12:39;;;;;;;2.00;1.00;;;;;;;21.11;46.49;101219.16;5076824;28;20200;-72
2021/05/28 10:15:08;;;;;;;0.70;0.70;;;;;;;21.31;45.31;101220.72;5062860;28;21027;-72
2021/05/28 10:17:36;;;;;;;1.40;0.67;;;;;;;21.27;41.00;101228.38;5078625;28;20669;-67
2021/05/28 10:20:06;;;;;;;0.60;0.57;;;;;;;21.38;39.81;101222.63;5066805;28;20461;-68
2021/05/28 10:22:34;;;;;;;1.03;0.80;;;;;;;21.47;40.36;101226.28;5066757;28;20882;-68
2021/05/28 10:25:04;;;;;;;0.57;0.57;;;;;;;21.42;38.91;101228.63;5074641;28;20202;-73
2021/05/28 10:27:33;;;;;;;0.60;0.60;;;;;;;21.55;34.63;101226.31;5072943;28;20200;-72
2021/05/28 10:30:12;;;;;;;1.33;0.60;;;;;;;21.20;35.01;101223.69;5073801;28;20217;-73
2021/05/28 10:32:40;;;;;;;3.93;0.90;;;;;;;21.18;37.89;101234.78;5067442;28;20197;-73
2021/05/28 10:35:17;;;;;;;0.77;0.63;;;;;;;20.88;37.09;101218.84;5066331;28;20613;-67
2021/05/28 10:37:46;;;;;;;0.60;0.60;;;;;;;20.75;36.22;101231.03;5065764;28;20193;-68
2021/05/28 10:40:27;;;;;;;0.70;0.70;;;;;;;20.76;34.27;101234.63;5067184;28;20224;-67
2021/05/28 10:43:04;;;;;;;0.70;0.70;;;;;;;20.88;36.35;101217.00;5067694;28;20586;-69
2021/05/28 10:45:56;;;;;;;0.77;0.77;;;;;;;21.34;35.41;101231.31;5068382;28;20588;-72
2021/05/28 10:49:00;;;;;;;0.60;0.60;;;;;;;20.98;33.84;101225.94;5067540;28;20220;-68
2021/05/28 10:52:00;;;;;;;0.50;0.50;;;;;;;20.71;35.25;101228.78;5064398;28;20233;-67
2021/05/28 10:54:32;;;;;;;0.60;0.60;;;;;;;20.27;36.01;101222.38;5027913;28;20565;-67
2021/05/28 10:57:22;;;;;;;0.50;0.50;;;;;;;20.32;34.05;101229.09;5082602;28;20200;-67
2021/05/28 10:59:53;;;;;;;0.60;0.60;;;;;;;20.07;32.71;101222.50;5062641;28;20570;-67
2021/05/28 11:02:45;;;;;;;0.60;0.60;;;;;;;20.25;34.94;101229.88;5068111;28;20201;-67
2021/05/28 11:05:14;;;;;;;3.50;0.87;;;;;;;20.51;37.27;101219.03;5064713;28;20295;-68
2021/05/28 11:07:44;;;;;;;0.50;0.50;;;;;;;20.74;36.53;101202.00;5071738;28;20284;-67
2021/05/28 11:10:23;;;;;;;0.50;0.50;;;;;;;21.09;37.22;101231.13;5070908;28;20221;-68
2021/05/28 11:12:51;;;;;;;4.90;0.90;;;;;;;20.25;35.01;101229.88;5078296;28;20201;-68
2021/05/28 11:15:26;;;;;;;0.57;0.57;;;;;;;19.64;35.57;101228.66;5069506;28;20748;-72
2021/05/28 11:17:58;;;;;;;0.40;0.40;;;;;;;19.18;35.60;101185.91;5068593;28;20208;-72
2021/05/28 11:20:31;;;;;;;0.70;0.70;;;;;;;19.94;37.41;101230.22;5073562;28;20702;-72
2021/05/28 11:22:59;;;;;;;0.50;0.50;;;;;;;20.48;37.90;101233.00;5073265;28;20223;-72
2021/05/28 11:25:31;;;;;;;0.70;0.70;;;;;;;20.69;37.85;101185.25;5067178;28;20247;-72
2021/05/28 11:28:04;;;;;;;1.03;0.60;;;;;;;20.41;33.81;101203.63;5076757;28;20197;-67
2021/05/28 11:30:40;;;;;;;0.70;0.70;;;;;;;20.42;34.19;101212.66;5073603;28;20564;-67
2021/05/28 11:33:08;;;;;;;0.73;0.73;;;;;;;20.52;34.21;101218.91;5075505;28;20204;-68
2021/05/28 11:35:41;;;;;;;0.57;0.57;;;;;;;20.46;35.91;101208.59;5077493;28;20197;-68
2021/05/28 11:38:10;;;;;;;0.70;0.70;;;;;;;20.95;37.72;101214.47;5068125;28;20201;-67
2021/05/28 11:40:40;;;;;;;2.23;0.70;;;;;;;21.13;36.26;101218.03;5068558;28;20658;-68
2021/05/28 11:43:10;;;;;;;0.70;0.70;;;;;;;21.53;36.11;101219.31;5068645;28;20225;-68